Terminal Aerodrome Forecast
Issued by NWS

Home | Current Version | Previous Version | Text Only | Print | Product List | Glossary On
Versions: 1 2 3 4 5 6 7 8 9 10 11 12 13 14 15 16 17 18 19 20 21 22 23 24 25 26 27 28
780
FTUS44 KBMX 212340
TAFMGM
TAF
KMGM 212340Z 2200/2224 VRB03KT P6SM SCT070
     FM220300 14005KT P6SM OVC025
     FM220400 15006KT 4SM TSRA BR SCT008 BKN035CB
     FM220900 19008KT 4SM -TSRA BR OVC035CB
     FM221700 24015G21KT P6SM -RA OVC040=

USA.gov is the U.S. government's official web portal to all federal, state and local government web resources and services.